sensor_id;sensor_type;location;lat;lon;timestamp;pressure;altitude;pressure_sealevel;temperature;humidity
49943;BME280;36011;53.362;58.948;2022-09-09T00:02:19;96935.25;;;5.99;64.52
49943;BME280;36011;53.362;58.948;2022-09-09T00:05:30;96933.41;;;6.01;64.41
49943;BME280;36011;53.362;58.948;2022-09-09T00:12:34;96937.91;;;6.16;63.89
49943;BME280;36011;53.362;58.948;2022-09-09T00:15:59;96947.03;;;6.26;63.82
49943;BME280;36011;53.362;58.948;2022-09-09T00:19:14;96944.28;;;6.29;63.41
49943;BME280;36011;53.362;58.948;2022-09-09T00:22:23;96951.47;;;6.24;63.67
49943;BME280;36011;53.362;58.948;2022-09-09T00:25:37;96948.09;;;6.22;63.46
49943;BME280;36011;53.362;58.948;2022-09-09T00:32:16;96953.94;;;6.08;63.72
49943;BME280;36011;53.362;58.948;2022-09-09T00:35:23;96950.78;;;6.02;63.95
49943;BME280;36011;53.362;58.948;2022-09-09T00:38:42;96954.81;;;5.89;64.29
49943;BME280;36011;53.362;58.948;2022-09-09T00:41:56;96952.91;;;5.73;64.79
49943;BME280;36011;53.362;58.948;2022-09-09T00:45:29;96954.06;;;5.66;65.00
49943;BME280;36011;53.362;58.948;2022-09-09T00:55:39;96964.50;;;5.87;64.17
49943;BME280;36011;53.362;58.948;2022-09-09T01:02:19;96958.31;;;5.69;64.66
49943;BME280;36011;53.362;58.948;2022-09-09T01:12:25;96948.31;;;5.78;64.05
49943;BME280;36011;53.362;58.948;2022-09-09T01:15:34;96943.25;;;5.75;63.97
49943;BME280;36011;53.362;58.948;2022-09-09T01:18:44;96957.69;;;5.82;63.96
49943;BME280;36011;53.362;58.948;2022-09-09T01:22:04;96951.22;;;5.72;63.97
49943;BME280;36011;53.362;58.948;2022-09-09T01:28:25;96952.38;;;5.65;64.16
49943;BME280;36011;53.362;58.948;2022-09-09T01:34:55;96953.38;;;5.62;64.42
49943;BME280;36011;53.362;58.948;2022-09-09T01:37:59;96966.34;;;5.64;64.21
49943;BME280;36011;53.362;58.948;2022-09-09T01:41:01;96961.00;;;5.67;64.53
49943;BME280;36011;53.362;58.948;2022-09-09T01:44:03;96970.91;;;5.79;64.29
49943;BME280;36011;53.362;58.948;2022-09-09T01:47:07;96958.50;;;5.84;63.82
49943;BME280;36011;53.362;58.948;2022-09-09T01:50:15;96960.31;;;5.82;64.07
49943;BME280;36011;53.362;58.948;2022-09-09T01:53:23;96962.09;;;5.82;64.49
49943;BME280;36011;53.362;58.948;2022-09-09T02:06:37;96974.59;;;6.15;63.75
49943;BME280;36011;53.362;58.948;2022-09-09T02:09:48;96973.81;;;6.13;64.06
49943;BME280;36011;53.362;58.948;2022-09-09T02:13:01;96979.75;;;6.35;63.73
49943;BME280;36011;53.362;58.948;2022-09-09T02:16:19;96989.75;;;6.44;63.61
49943;BME280;36011;53.362;58.948;2022-09-09T02:19:31;96986.78;;;6.52;63.25
49943;BME280;36011;53.362;58.948;2022-09-09T02:22:38;96984.97;;;6.54;62.92
49943;BME280;36011;53.362;58.948;2022-09-09T02:25:46;96989.59;;;6.66;62.95
49943;BME280;36011;53.362;58.948;2022-09-09T02:28:50;96978.00;;;6.72;62.56
49943;BME280;36011;53.362;58.948;2022-09-09T02:31:59;96977.00;;;6.74;62.61
49943;BME280;36011;53.362;58.948;2022-09-09T02:35:08;96988.25;;;6.77;62.87
49943;BME280;36011;53.362;58.948;2022-09-09T02:38:15;96995.81;;;6.83;63.05
49943;BME280;36011;53.362;58.948;2022-09-09T02:41:26;96991.97;;;6.90;62.58
49943;BME280;36011;53.362;58.948;2022-09-09T02:44:32;96987.25;;;6.79;63.43
49943;BME280;36011;53.362;58.948;2022-09-09T02:51:08;96994.25;;;6.79;64.01
49943;BME280;36011;53.362;58.948;2022-09-09T02:57:28;97000.41;;;7.14;63.92
49943;BME280;36011;53.362;58.948;2022-09-09T03:00:32;96999.78;;;7.26;63.58
49943;BME280;36011;53.362;58.948;2022-09-09T03:03:34;97004.81;;;7.48;62.79
49943;BME280;36011;53.362;58.948;2022-09-09T03:06:37;96996.09;;;7.65;62.96
49943;BME280;36011;53.362;58.948;2022-09-09T03:09:39;96993.81;;;7.92;62.17
49943;BME280;36011;53.362;58.948;2022-09-09T03:12:40;96993.03;;;8.23;61.54
49943;BME280;36011;53.362;58.948;2022-09-09T03:15:44;96994.69;;;8.58;60.60
49943;BME280;36011;53.362;58.948;2022-09-09T03:18:46;96997.06;;;8.94;60.17
49943;BME280;36011;53.362;58.948;2022-09-09T03:21:49;97001.16;;;9.14;59.49
49943;BME280;36011;53.362;58.948;2022-09-09T03:24:51;96999.66;;;9.26;59.29
49943;BME280;36011;53.362;58.948;2022-09-09T03:27:56;96998.78;;;9.25;59.51
49943;BME280;36011;53.362;58.948;2022-09-09T03:31:01;97009.47;;;9.22;60.12
49943;BME280;36011;53.362;58.948;2022-09-09T03:34:03;96986.38;;;9.13;60.21
49943;BME280;36011;53.362;58.948;2022-09-09T03:37:09;97009.56;;;9.51;59.64
49943;BME280;36011;53.362;58.948;2022-09-09T03:40:11;97009.47;;;9.52;59.27
49943;BME280;36011;53.362;58.948;2022-09-09T03:43:14;97015.28;;;9.43;60.08
49943;BME280;36011;53.362;58.948;2022-09-09T03:46:20;97000.75;;;9.52;59.84
49943;BME280;36011;53.362;58.948;2022-09-09T03:49:22;97012.03;;;9.68;59.22
49943;BME280;36011;53.362;58.948;2022-09-09T03:52:27;97001.88;;;9.62;58.96
49943;BME280;36011;53.362;58.948;2022-09-09T03:55:31;97012.41;;;9.62;58.99
49943;BME280;36011;53.362;58.948;2022-09-09T03:58:37;97013.56;;;9.72;58.63
49943;BME280;36011;53.362;58.948;2022-09-09T04:01:39;97018.06;;;9.84;58.25
49943;BME280;36011;53.362;58.948;2022-09-09T04:04:44;97010.31;;;10.11;57.96
49943;BME280;36011;53.362;58.948;2022-09-09T04:07:45;97016.94;;;10.62;56.23
49943;BME280;36011;53.362;58.948;2022-09-09T04:10:49;97027.78;;;11.11;55.21
49943;BME280;36011;53.362;58.948;2022-09-09T04:13:51;97019.97;;;11.24;54.52
49943;BME280;36011;53.362;58.948;2022-09-09T04:16:55;97020.16;;;11.61;53.87
49943;BME280;36011;53.362;58.948;2022-09-09T04:20:02;97015.19;;;12.22;53.12
49943;BME280;36011;53.362;58.948;2022-09-09T04:23:09;97030.34;;;12.69;51.30
49943;BME280;36011;53.362;58.948;2022-09-09T04:26:11;97028.16;;;12.87;51.55
49943;BME280;36011;53.362;58.948;2022-09-09T04:29:12;97015.25;;;12.58;50.99
49943;BME280;36011;53.362;58.948;2022-09-09T04:32:13;97026.69;;;12.46;51.22
49943;BME280;36011;53.362;58.948;2022-09-09T04:35:16;97028.09;;;12.76;50.35
49943;BME280;36011;53.362;58.948;2022-09-09T04:38:17;97034.72;;;12.94;48.96
49943;BME280;36011;53.362;58.948;2022-09-09T04:41:20;97031.47;;;12.78;47.66
49943;BME280;36011;53.362;58.948;2022-09-09T04:44:24;97022.22;;;12.47;48.16
49943;BME280;36011;53.362;58.948;2022-09-09T04:47:28;97018.13;;;12.43;48.86
49943;BME280;36011;53.362;58.948;2022-09-09T04:50:33;97017.44;;;12.65;48.31
49943;BME280;36011;53.362;58.948;2022-09-09T04:53:35;97019.72;;;12.82;47.78
49943;BME280;36011;53.362;58.948;2022-09-09T04:56:39;97017.09;;;12.82;47.59
49943;BME280;36011;53.362;58.948;2022-09-09T04:59:43;97029.72;;;12.66;47.75
49943;BME280;36011;53.362;58.948;2022-09-09T05:02:50;97015.72;;;12.27;48.56
49943;BME280;36011;53.362;58.948;2022-09-09T05:05:55;97014.53;;;12.05;48.86
49943;BME280;36011;53.362;58.948;2022-09-09T05:09:03;97017.06;;;11.94;49.50
49943;BME280;36011;53.362;58.948;2022-09-09T05:12:04;97013.69;;;12.05;49.14
49943;BME280;36011;53.362;58.948;2022-09-09T05:15:06;97003.78;;;12.08;49.20
49943;BME280;36011;53.362;58.948;2022-09-09T05:18:10;97011.69;;;12.21;48.65
49943;BME280;36011;53.362;58.948;2022-09-09T05:21:14;97008.22;;;11.95;49.20
49943;BME280;36011;53.362;58.948;2022-09-09T05:24:16;97016.66;;;11.87;49.75
49943;BME280;36011;53.362;58.948;2022-09-09T05:27:20;97015.16;;;11.96;49.73
49943;BME280;36011;53.362;58.948;2022-09-09T05:30:22;97019.81;;;12.05;49.56
49943;BME280;36011;53.362;58.948;2022-09-09T05:33:26;97013.06;;;12.01;49.09
49943;BME280;36011;53.362;58.948;2022-09-09T05:36:33;97010.13;;;12.06;49.19
49943;BME280;36011;53.362;58.948;2022-09-09T05:39:34;97012.09;;;12.28;48.78
49943;BME280;36011;53.362;58.948;2022-09-09T05:42:41;97002.91;;;12.46;48.18
49943;BME280;36011;53.362;58.948;2022-09-09T05:45:43;97006.66;;;12.68;47.57
49943;BME280;36011;53.362;58.948;2022-09-09T05:48:45;97013.88;;;12.66;47.44
49943;BME280;36011;53.362;58.948;2022-09-09T05:51:57;96998.88;;;12.66;47.33
49943;BME280;36011;53.362;58.948;2022-09-09T05:55:04;97010.78;;;13.09;46.36
49943;BME280;36011;53.362;58.948;2022-09-09T05:58:08;97009.75;;;12.98;46.35
49943;BME280;36011;53.362;58.948;2022-09-09T06:01:12;97005.22;;;12.64;47.09
49943;BME280;36011;53.362;58.948;2022-09-09T06:04:16;97000.06;;;12.49;47.29
49943;BME280;36011;53.362;58.948;2022-09-09T06:07:22;97001.78;;;12.25;47.92
49943;BME280;36011;53.362;58.948;2022-09-09T06:10:23;97005.34;;;12.36;47.49
49943;BME280;36011;53.362;58.948;2022-09-09T06:13:29;97010.94;;;12.57;46.99
49943;BME280;36011;53.362;58.948;2022-09-09T06:16:34;97008.59;;;12.66;46.61
49943;BME280;36011;53.362;58.948;2022-09-09T06:19:35;97008.91;;;12.61;46.38
49943;BME280;36011;53.362;58.948;2022-09-09T06:22:40;96997.44;;;12.49;46.28
49943;BME280;36011;53.362;58.948;2022-09-09T06:25:45;97002.47;;;12.52;46.52
49943;BME280;36011;53.362;58.948;2022-09-09T06:28:50;96999.63;;;12.55;46.42
49943;BME280;36011;53.362;58.948;2022-09-09T06:31:56;96991.88;;;12.65;46.36
49943;BME280;36011;53.362;58.948;2022-09-09T06:35:02;96996.22;;;12.66;46.22
49943;BME280;36011;53.362;58.948;2022-09-09T06:38:07;97000.22;;;12.72;46.41
49943;BME280;36011;53.362;58.948;2022-09-09T06:41:13;96998.13;;;13.01;44.99
49943;BME280;36011;53.362;58.948;2022-09-09T06:44:18;96988.94;;;12.70;45.62
49943;BME280;36011;53.362;58.948;2022-09-09T06:47:19;96984.31;;;12.61;45.89
49943;BME280;36011;53.362;58.948;2022-09-09T06:50:28;96983.47;;;12.47;46.21
49943;BME280;36011;53.362;58.948;2022-09-09T06:53:29;96990.47;;;12.48;45.93
49943;BME280;36011;53.362;58.948;2022-09-09T06:56:37;96987.94;;;12.08;47.06
49943;BME280;36011;53.362;58.948;2022-09-09T06:59:41;96988.81;;;11.96;47.68
49943;BME280;36011;53.362;58.948;2022-09-09T07:02:45;96980.16;;;12.07;47.58
49943;BME280;36011;53.362;58.948;2022-09-09T07:05:56;96993.66;;;12.02;47.99
49943;BME280;36011;53.362;58.948;2022-09-09T07:09:04;96983.31;;;11.99;47.66
49943;BME280;36011;53.362;58.948;2022-09-09T07:12:09;96979.75;;;12.00;47.89
49943;BME280;36011;53.362;58.948;2022-09-09T07:15:15;96978.56;;;12.04;47.77
49943;BME280;36011;53.362;58.948;2022-09-09T07:18:22;96977.09;;;12.26;47.24
49943;BME280;36011;53.362;58.948;2022-09-09T07:21:23;96975.06;;;12.17;47.70
49943;BME280;36011;53.362;58.948;2022-09-09T07:24:29;96974.84;;;12.20;47.10
49943;BME280;36011;53.362;58.948;2022-09-09T07:27:33;96978.47;;;12.19;47.07
49943;BME280;36011;53.362;58.948;2022-09-09T07:30:35;96984.34;;;12.35;46.93
49943;BME280;36011;53.362;58.948;2022-09-09T07:33:39;96972.19;;;12.45;46.24
49943;BME280;36011;53.362;58.948;2022-09-09T07:36:42;96972.78;;;12.62;45.95
49943;BME280;36011;53.362;58.948;2022-09-09T07:39:46;96973.31;;;12.91;45.65
49943;BME280;36011;53.362;58.948;2022-09-09T07:42:53;96976.22;;;13.36;44.50
49943;BME280;36011;53.362;58.948;2022-09-09T07:45:58;96980.75;;;13.58;43.93
49943;BME280;36011;53.362;58.948;2022-09-09T07:49:10;96972.31;;;13.53;43.52
49943;BME280;36011;53.362;58.948;2022-09-09T07:52:17;96967.81;;;13.77;42.72
49943;BME280;36011;53.362;58.948;2022-09-09T07:55:24;96984.41;;;13.79;42.61
49943;BME280;36011;53.362;58.948;2022-09-09T07:58:28;96965.69;;;13.93;41.48
49943;BME280;36011;53.362;58.948;2022-09-09T08:01:38;96968.72;;;14.11;41.10
49943;BME280;36011;53.362;58.948;2022-09-09T08:04:43;96967.34;;;13.83;41.40
49943;BME280;36011;53.362;58.948;2022-09-09T08:07:44;96953.56;;;14.02;41.07
49943;BME280;36011;53.362;58.948;2022-09-09T08:10:48;96960.88;;;13.87;41.61
49943;BME280;36011;53.362;58.948;2022-09-09T08:13:51;96963.75;;;13.84;41.83
49943;BME280;36011;53.362;58.948;2022-09-09T08:16:52;96962.69;;;13.98;41.68
49943;BME280;36011;53.362;58.948;2022-09-09T08:19:57;96957.03;;;14.14;40.88
49943;BME280;36011;53.362;58.948;2022-09-09T08:22:59;96956.22;;;14.36;40.18
49943;BME280;36011;53.362;58.948;2022-09-09T08:26:05;96959.25;;;14.54;39.87
49943;BME280;36011;53.362;58.948;2022-09-09T08:29:12;96956.88;;;14.94;39.22
49943;BME280;36011;53.362;58.948;2022-09-09T08:32:14;96945.28;;;15.39;38.30
49943;BME280;36011;53.362;58.948;2022-09-09T08:35:20;96945.44;;;16.00;37.15
49943;BME280;36011;53.362;58.948;2022-09-09T08:38:21;96947.09;;;16.63;36.05
49943;BME280;36011;53.362;58.948;2022-09-09T08:44:47;96940.94;;;18.74;32.41
49943;BME280;36011;53.362;58.948;2022-09-09T08:48:21;96931.34;;;19.89;30.28
49943;BME280;36011;53.362;58.948;2022-09-09T08:51:19;96932.31;;;21.33;28.72
49943;BME280;36011;53.362;58.948;2022-09-09T08:54:26;96934.16;;;21.33;26.70
49943;BME280;36011;53.362;58.948;2022-09-09T08:57:33;96919.34;;;20.88;26.90
49943;BME280;36011;53.362;58.948;2022-09-09T09:04:14;96907.56;;;21.31;26.60
49943;BME280;36011;53.362;58.948;2022-09-09T09:11:05;96900.94;;;23.42;24.47
49943;BME280;36011;53.362;58.948;2022-09-09T09:14:18;96909.19;;;27.37;19.94
49943;BME280;36011;53.362;58.948;2022-09-09T09:17:25;96890.41;;;29.65;17.76
49943;BME280;36011;53.362;58.948;2022-09-09T09:23:59;96889.25;;;32.76;14.54
49943;BME280;36011;53.362;58.948;2022-09-09T09:27:13;96885.03;;;32.56;15.27
49943;BME280;36011;53.362;58.948;2022-09-09T09:30:22;96883.19;;;33.26;14.32
49943;BME280;36011;53.362;58.948;2022-09-09T09:36:44;96862.16;;;31.98;14.81
49943;BME280;36011;53.362;58.948;2022-09-09T09:39:55;96867.78;;;31.31;15.22
49943;BME280;36011;53.362;58.948;2022-09-09T09:43:00;96863.63;;;30.62;15.46
49943;BME280;36011;53.362;58.948;2022-09-09T09:46:16;96851.63;;;27.63;17.47
49943;BME280;36011;53.362;58.948;2022-09-09T09:49:19;96855.41;;;27.55;17.20
49943;BME280;36011;53.362;58.948;2022-09-09T09:52:28;96853.22;;;29.08;15.93
49943;BME280;36011;53.362;58.948;2022-09-09T09:55:31;96852.47;;;29.65;15.56
49943;BME280;36011;53.362;58.948;2022-09-09T10:01:49;96876.34;;;29.99;15.32
49943;BME280;36011;53.362;58.948;2022-09-09T10:05:18;96844.31;;;30.33;14.75
49943;BME280;36011;53.362;58.948;2022-09-09T10:08:24;96832.22;;;28.39;16.16
49943;BME280;36011;53.362;58.948;2022-09-09T10:11:44;96828.09;;;25.36;18.29
49943;BME280;36011;53.362;58.948;2022-09-09T10:18:17;96838.94;;;24.85;18.43
49943;BME280;36011;53.362;58.948;2022-09-09T10:28:15;96824.22;;;28.71;15.79
49943;BME280;36011;53.362;58.948;2022-09-09T10:31:22;96816.44;;;28.29;15.57
49943;BME280;36011;53.362;58.948;2022-09-09T10:38:13;96809.69;;;26.65;17.03
49943;BME280;36011;53.362;58.948;2022-09-09T10:51:57;96801.34;;;25.84;17.49
49943;BME280;36011;53.362;58.948;2022-09-09T10:55:14;96799.06;;;26.16;17.51
49943;BME280;36011;53.362;58.948;2022-09-09T10:58:39;96794.31;;;26.66;17.24
49943;BME280;36011;53.362;58.948;2022-09-09T11:04:57;96787.41;;;24.15;19.80
49943;BME280;36011;53.362;58.948;2022-09-09T11:08:09;96779.56;;;22.15;21.71
49943;BME280;36011;53.362;58.948;2022-09-09T11:11:26;96769.22;;;22.51;21.48
49943;BME280;36011;53.362;58.948;2022-09-09T11:14:43;96784.13;;;24.35;19.82
49943;BME280;36011;53.362;58.948;2022-09-09T11:17:50;96778.16;;;25.90;18.75
49943;BME280;36011;53.362;58.948;2022-09-09T11:21:00;96764.97;;;27.24;17.57
49943;BME280;36011;53.362;58.948;2022-09-09T11:24:06;96768.22;;;26.93;17.31
49943;BME280;36011;53.362;58.948;2022-09-09T11:30:22;96767.28;;;24.11;20.12
49943;BME280;36011;53.362;58.948;2022-09-09T11:40:30;96763.94;;;19.89;24.80
49943;BME280;36011;53.362;58.948;2022-09-09T11:46:53;96741.56;;;22.74;22.10
49943;BME280;36011;53.362;58.948;2022-09-09T11:50:07;96742.97;;;21.99;22.54
49943;BME280;36011;53.362;58.948;2022-09-09T11:53:20;96737.72;;;20.27;24.43
49943;BME280;36011;53.362;58.948;2022-09-09T11:56:41;96733.75;;;19.28;25.62
49943;BME280;36011;53.362;58.948;2022-09-09T11:59:51;96744.94;;;18.34;26.76
49943;BME280;36011;53.362;58.948;2022-09-09T12:03:01;96729.50;;;17.92;27.93
49943;BME280;36011;53.362;58.948;2022-09-09T12:06:19;96730.84;;;17.69;28.30
49943;BME280;36011;53.362;58.948;2022-09-09T12:09:46;96732.13;;;17.65;28.76
49943;BME280;36011;53.362;58.948;2022-09-09T12:12:52;96727.22;;;17.70;28.61
49943;BME280;36011;53.362;58.948;2022-09-09T12:15:57;96731.31;;;17.55;28.97
49943;BME280;36011;53.362;58.948;2022-09-09T12:19:19;96728.84;;;17.43;28.73
49943;BME280;36011;53.362;58.948;2022-09-09T12:32:02;96712.69;;;17.27;29.34
49943;BME280;36011;53.362;58.948;2022-09-09T12:35:19;96713.75;;;17.34;29.31
49943;BME280;36011;53.362;58.948;2022-09-09T12:38:44;96707.56;;;17.43;29.21
49943;BME280;36011;53.362;58.948;2022-09-09T12:41:53;96709.38;;;17.53;29.39
49943;BME280;36011;53.362;58.948;2022-09-09T12:45:03;96710.22;;;17.06;30.21
49943;BME280;36011;53.362;58.948;2022-09-09T12:48:12;96716.47;;;17.15;30.07
49943;BME280;36011;53.362;58.948;2022-09-09T12:51:24;96706.19;;;16.92;30.53
49943;BME280;36011;53.362;58.948;2022-09-09T12:54:30;96703.00;;;16.59;31.31
49943;BME280;36011;53.362;58.948;2022-09-09T12:57:38;96695.88;;;16.50;31.76
49943;BME280;36011;53.362;58.948;2022-09-09T13:00:49;96699.50;;;16.49;31.97
49943;BME280;36011;53.362;58.948;2022-09-09T13:03:54;96699.78;;;16.46;31.93
49943;BME280;36011;53.362;58.948;2022-09-09T13:07:08;96690.69;;;16.49;31.65
49943;BME280;36011;53.362;58.948;2022-09-09T13:10:14;96700.75;;;16.45;31.73
49943;BME280;36011;53.362;58.948;2022-09-09T13:13:19;96699.06;;;16.44;31.89
49943;BME280;36011;53.362;58.948;2022-09-09T13:16:29;96701.03;;;16.42;31.86
49943;BME280;36011;53.362;58.948;2022-09-09T13:19:36;96705.94;;;16.37;31.90
49943;BME280;36011;53.362;58.948;2022-09-09T13:22:39;96709.44;;;16.28;32.06
49943;BME280;36011;53.362;58.948;2022-09-09T13:25:53;96711.66;;;16.23;32.36
49943;BME280;36011;53.362;58.948;2022-09-09T13:28:55;96716.66;;;16.16;32.34
49943;BME280;36011;53.362;58.948;2022-09-09T13:32:17;96709.97;;;16.02;33.33
49943;BME280;36011;53.362;58.948;2022-09-09T13:35:23;96722.19;;;15.84;34.43
49943;BME280;36011;53.362;58.948;2022-09-09T13:38:27;96729.94;;;15.66;36.16
49943;BME280;36011;53.362;58.948;2022-09-09T13:41:35;96729.53;;;15.40;38.00
49943;BME280;36011;53.362;58.948;2022-09-09T13:44:40;96723.72;;;15.15;39.68
49943;BME280;36011;53.362;58.948;2022-09-09T13:47:45;96731.03;;;15.02;40.28
49943;BME280;36011;53.362;58.948;2022-09-09T13:51:02;96737.91;;;14.84;41.17
49943;BME280;36011;53.362;58.948;2022-09-09T13:54:10;96738.22;;;14.69;41.71
49943;BME280;36011;53.362;58.948;2022-09-09T13:57:16;96745.50;;;14.56;42.23
49943;BME280;36011;53.362;58.948;2022-09-09T14:00:24;96734.69;;;14.36;42.99
49943;BME280;36011;53.362;58.948;2022-09-09T14:03:28;96751.41;;;14.37;43.35
49943;BME280;36011;53.362;58.948;2022-09-09T14:06:33;96724.78;;;14.18;43.41
49943;BME280;36011;53.362;58.948;2022-09-09T14:09:45;96742.69;;;14.25;44.00
49943;BME280;36011;53.362;58.948;2022-09-09T14:12:50;96737.66;;;14.22;44.04
49943;BME280;36011;53.362;58.948;2022-09-09T14:15:55;96738.16;;;14.16;43.90
49943;BME280;36011;53.362;58.948;2022-09-09T14:18:59;96741.28;;;14.10;44.21
49943;BME280;36011;53.362;58.948;2022-09-09T14:22:00;96747.06;;;14.04;44.19
49943;BME280;36011;53.362;58.948;2022-09-09T14:25:03;96752.50;;;14.02;44.47
49943;BME280;36011;53.362;58.948;2022-09-09T14:28:10;96746.88;;;13.96;44.57
49943;BME280;36011;53.362;58.948;2022-09-09T14:31:16;96755.00;;;13.92;45.06
49943;BME280;36011;53.362;58.948;2022-09-09T14:34:25;96735.81;;;13.79;45.14
49943;BME280;36011;53.362;58.948;2022-09-09T14:37:31;96752.63;;;13.78;45.44
49943;BME280;36011;53.362;58.948;2022-09-09T14:40:37;96754.69;;;13.75;45.87
49943;BME280;36011;53.362;58.948;2022-09-09T14:43:39;96759.88;;;13.76;46.06
49943;BME280;36011;53.362;58.948;2022-09-09T14:46:45;96751.56;;;13.69;46.54
49943;BME280;36011;53.362;58.948;2022-09-09T14:49:50;96753.63;;;13.66;46.43
49943;BME280;36011;53.362;58.948;2022-09-09T14:52:52;96749.56;;;13.62;46.68
49943;BME280;36011;53.362;58.948;2022-09-09T14:56:06;96741.38;;;13.54;47.37
49943;BME280;36011;53.362;58.948;2022-09-09T14:59:10;96748.09;;;13.46;47.35
49943;BME280;36011;53.362;58.948;2022-09-09T15:02:11;96756.50;;;13.40;47.52
49943;BME280;36011;53.362;58.948;2022-09-09T15:05:16;96752.78;;;13.32;48.05
49943;BME280;36011;53.362;58.948;2022-09-09T15:08:18;96752.66;;;13.22;48.18
49943;BME280;36011;53.362;58.948;2022-09-09T15:11:22;96742.06;;;13.11;48.60
49943;BME280;36011;53.362;58.948;2022-09-09T15:14:27;96750.66;;;13.01;49.24
49943;BME280;36011;53.362;58.948;2022-09-09T15:17:31;96747.41;;;12.87;49.53
49943;BME280;36011;53.362;58.948;2022-09-09T15:20:35;96747.00;;;12.69;50.05
49943;BME280;36011;53.362;58.948;2022-09-09T15:23:41;96752.47;;;12.54;50.84
49943;BME280;36011;53.362;58.948;2022-09-09T15:26:45;96752.25;;;12.33;51.39
49943;BME280;36011;53.362;58.948;2022-09-09T15:29:49;96736.47;;;12.09;52.13
49943;BME280;36011;53.362;58.948;2022-09-09T15:32:56;96731.56;;;11.92;52.74
49943;BME280;36011;53.362;58.948;2022-09-09T15:36:00;96735.88;;;11.80;53.56
49943;BME280;36011;53.362;58.948;2022-09-09T15:39:03;96735.53;;;11.61;54.17
49943;BME280;36011;53.362;58.948;2022-09-09T15:42:07;96728.41;;;11.37;54.58
49943;BME280;36011;53.362;58.948;2022-09-09T15:45:09;96731.59;;;11.30;54.94
49943;BME280;36011;53.362;58.948;2022-09-09T15:48:14;96719.16;;;11.06;55.75
49943;BME280;36011;53.362;58.948;2022-09-09T15:51:19;96728.09;;;11.04;56.13
49943;BME280;36011;53.362;58.948;2022-09-09T15:54:22;96733.06;;;10.95;55.15
49943;BME280;36011;53.362;58.948;2022-09-09T15:57:27;96727.16;;;10.92;56.29
49943;BME280;36011;53.362;58.948;2022-09-09T16:00:29;96739.09;;;10.85;56.68
49943;BME280;36011;53.362;58.948;2022-09-09T16:03:40;96739.38;;;10.80;57.17
49943;BME280;36011;53.362;58.948;2022-09-09T16:06:43;96730.75;;;10.65;57.24
49943;BME280;36011;53.362;58.948;2022-09-09T16:09:50;96738.50;;;10.67;57.57
49943;BME280;36011;53.362;58.948;2022-09-09T16:12:58;96747.78;;;10.72;57.59
49943;BME280;36011;53.362;58.948;2022-09-09T16:16:00;96743.59;;;10.83;57.43
49943;BME280;36011;53.362;58.948;2022-09-09T16:19:06;96746.34;;;10.94;57.36
49943;BME280;36011;53.362;58.948;2022-09-09T16:22:15;96723.41;;;10.96;57.07
49943;BME280;36011;53.362;58.948;2022-09-09T16:25:24;96732.53;;;11.03;57.32
49943;BME280;36011;53.362;58.948;2022-09-09T16:28:28;96735.78;;;11.07;57.19
49943;BME280;36011;53.362;58.948;2022-09-09T16:31:37;96727.81;;;11.08;57.41
49943;BME280;36011;53.362;58.948;2022-09-09T16:34:41;96736.44;;;11.10;57.31
49943;BME280;36011;53.362;58.948;2022-09-09T16:37:46;96747.91;;;11.09;57.45
49943;BME280;36011;53.362;58.948;2022-09-09T16:40:50;96742.66;;;11.09;57.62
49943;BME280;36011;53.362;58.948;2022-09-09T16:43:53;96736.66;;;11.07;57.78
49943;BME280;36011;53.362;58.948;2022-09-09T16:46:57;96734.53;;;10.99;58.04
49943;BME280;36011;53.362;58.948;2022-09-09T16:49:58;96738.97;;;10.86;58.54
49943;BME280;36011;53.362;58.948;2022-09-09T16:53:00;96735.38;;;10.74;58.72
49943;BME280;36011;53.362;58.948;2022-09-09T16:56:18;96742.31;;;10.63;59.30
49943;BME280;36011;53.362;58.948;2022-09-09T16:59:25;96738.72;;;10.51;59.29
49943;BME280;36011;53.362;58.948;2022-09-09T17:02:27;96715.97;;;10.37;59.57
49943;BME280;36011;53.362;58.948;2022-09-09T17:05:32;96729.53;;;10.44;59.67
49943;BME280;36011;53.362;58.948;2022-09-09T17:08:36;96725.03;;;10.46;59.64
49943;BME280;36011;53.362;58.948;2022-09-09T17:11:38;96736.59;;;10.43;59.61
49943;BME280;36011;53.362;58.948;2022-09-09T17:14:39;96730.25;;;10.33;59.95
49943;BME280;36011;53.362;58.948;2022-09-09T17:17:46;96730.06;;;10.22;60.04
49943;BME280;36011;53.362;58.948;2022-09-09T17:20:50;96718.00;;;10.19;60.21
49943;BME280;36011;53.362;58.948;2022-09-09T17:23:54;96727.22;;;10.12;60.41
49943;BME280;36011;53.362;58.948;2022-09-09T17:27:00;96725.06;;;10.04;60.79
49943;BME280;36011;53.362;58.948;2022-09-09T17:30:04;96722.97;;;9.97;60.84
49943;BME280;36011;53.362;58.948;2022-09-09T17:33:08;96728.22;;;9.97;60.89
49943;BME280;36011;53.362;58.948;2022-09-09T17:36:17;96734.75;;;10.04;60.91
49943;BME280;36011;53.362;58.948;2022-09-09T17:39:25;96723.84;;;10.10;60.67
49943;BME280;36011;53.362;58.948;2022-09-09T17:42:29;96716.50;;;10.15;60.36
49943;BME280;36011;53.362;58.948;2022-09-09T17:45:35;96719.97;;;10.16;59.93
49943;BME280;36011;53.362;58.948;2022-09-09T17:48:41;96715.38;;;10.19;60.19
49943;BME280;36011;53.362;58.948;2022-09-09T17:51:50;96709.16;;;10.20;59.97
49943;BME280;36011;53.362;58.948;2022-09-09T17:54:55;96711.16;;;10.17;59.95
49943;BME280;36011;53.362;58.948;2022-09-09T17:58:00;96718.16;;;10.16;59.96
49943;BME280;36011;53.362;58.948;2022-09-09T18:01:07;96709.44;;;10.16;59.94
49943;BME280;36011;53.362;58.948;2022-09-09T18:04:15;96714.81;;;10.14;59.69
49943;BME280;36011;53.362;58.948;2022-09-09T18:07:21;96718.56;;;10.10;59.63
49943;BME280;36011;53.362;58.948;2022-09-09T18:10:26;96716.69;;;10.12;59.69
49943;BME280;36011;53.362;58.948;2022-09-09T18:13:28;96704.50;;;10.11;59.52
49943;BME280;36011;53.362;58.948;2022-09-09T18:16:31;96720.63;;;10.19;59.55
49943;BME280;36011;53.362;58.948;2022-09-09T18:19:39;96708.94;;;10.23;59.26